sensor_id;sensor_type;location;lat;lon;timestamp;P1;durP1;ratioP1;P2;durP2;ratioP2
77402;SDS011;66472;53.046;8.656;2023-06-22T00:02:40;68.23;;;64.13;;
77402;SDS011;66472;53.046;8.656;2023-06-22T00:07:38;66.97;;;63.07;;
77402;SDS011;66472;53.046;8.656;2023-06-22T00:12:33;63.60;;;59.93;;
77402;SDS011;66472;53.046;8.656;2023-06-22T00:17:28;62.20;;;58.43;;
77402;SDS011;66472;53.046;8.656;2023-06-22T00:22:24;60.00;;;56.40;;
77402;SDS011;66472;53.046;8.656;2023-06-22T00:27:23;54.97;;;51.70;;
77402;SDS011;66472;53.046;8.656;2023-06-22T00:32:19;61.90;;;57.97;;
77402;SDS011;66472;53.046;8.656;2023-06-22T00:37:17;62.27;;;58.67;;
77402;SDS011;66472;53.046;8.656;2023-06-22T00:42:12;60.23;;;56.43;;
77402;SDS011;66472;53.046;8.656;2023-06-22T00:47:07;56.27;;;52.90;;
77402;SDS011;66472;53.046;8.656;2023-06-22T00:52:03;58.57;;;54.93;;
77402;SDS011;66472;53.046;8.656;2023-06-22T00:56:58;44.80;;;41.90;;
77402;SDS011;66472;53.046;8.656;2023-06-22T01:01:54;43.70;;;40.70;;
77402;SDS011;66472;53.046;8.656;2023-06-22T01:12:14;41.17;;;38.33;;
77402;SDS011;66472;53.046;8.656;2023-06-22T01:17:10;43.10;;;40.53;;
77402;SDS011;66472;53.046;8.656;2023-06-22T01:22:07;46.40;;;43.53;;
77402;SDS011;66472;53.046;8.656;2023-06-22T01:27:15;46.23;;;43.23;;
77402;SDS011;66472;53.046;8.656;2023-06-22T01:32:16;55.20;;;51.30;;
77402;SDS011;66472;53.046;8.656;2023-06-22T01:37:12;54.43;;;50.97;;
77402;SDS011;66472;53.046;8.656;2023-06-22T01:42:08;54.80;;;51.07;;
77402;SDS011;66472;53.046;8.656;2023-06-22T01:47:04;58.53;;;54.53;;
77402;SDS011;66472;53.046;8.656;2023-06-22T01:52:00;57.53;;;53.93;;
77402;SDS011;66472;53.046;8.656;2023-06-22T01:56:57;58.00;;;54.07;;
77402;SDS011;66472;53.046;8.656;2023-06-22T02:01:57;58.00;;;54.07;;
77402;SDS011;66472;53.046;8.656;2023-06-22T02:06:55;60.60;;;56.23;;
77402;SDS011;66472;53.046;8.656;2023-06-22T02:11:52;55.60;;;51.73;;
77402;SDS011;66472;53.046;8.656;2023-06-22T02:16:50;70.77;;;66.13;;
77402;SDS011;66472;53.046;8.656;2023-06-22T02:21:46;70.80;;;66.03;;
77402;SDS011;66472;53.046;8.656;2023-06-22T02:26:42;61.80;;;57.77;;
77402;SDS011;66472;53.046;8.656;2023-06-22T02:31:37;70.83;;;65.90;;
77402;SDS011;66472;53.046;8.656;2023-06-22T02:36:33;78.30;;;73.00;;
77402;SDS011;66472;53.046;8.656;2023-06-22T02:41:29;86.63;;;81.27;;
77402;SDS011;66472;53.046;8.656;2023-06-22T02:46:25;72.13;;;67.23;;
77402;SDS011;66472;53.046;8.656;2023-06-22T02:51:21;80.30;;;75.03;;
77402;SDS011;66472;53.046;8.656;2023-06-22T02:56:16;78.20;;;73.30;;
77402;SDS011;66472;53.046;8.656;2023-06-22T03:01:13;72.30;;;67.50;;
77402;SDS011;66472;53.046;8.656;2023-06-22T03:06:10;67.63;;;63.23;;
77402;SDS011;66472;53.046;8.656;2023-06-22T03:11:09;70.90;;;66.10;;
77402;SDS011;66472;53.046;8.656;2023-06-22T03:16:05;74.23;;;69.33;;
77402;SDS011;66472;53.046;8.656;2023-06-22T03:21:00;70.17;;;65.57;;
77402;SDS011;66472;53.046;8.656;2023-06-22T03:25:57;64.40;;;60.00;;
77402;SDS011;66472;53.046;8.656;2023-06-22T03:30:52;63.33;;;59.03;;
77402;SDS011;66472;53.046;8.656;2023-06-22T03:35:48;59.67;;;55.63;;
77402;SDS011;66472;53.046;8.656;2023-06-22T03:40:44;59.73;;;55.87;;
77402;SDS011;66472;53.046;8.656;2023-06-22T03:45:39;55.97;;;52.27;;
77402;SDS011;66472;53.046;8.656;2023-06-22T03:50:35;49.97;;;46.67;;
77402;SDS011;66472;53.046;8.656;2023-06-22T04:00:34;46.07;;;42.87;;
77402;SDS011;66472;53.046;8.656;2023-06-22T04:05:29;46.47;;;43.20;;
77402;SDS011;66472;53.046;8.656;2023-06-22T04:10:24;46.15;;;42.92;;
77402;SDS011;66472;53.046;8.656;2023-06-22T04:15:20;35.90;;;33.23;;
77402;SDS011;66472;53.046;8.656;2023-06-22T04:20:15;36.00;;;33.30;;
77402;SDS011;66472;53.046;8.656;2023-06-22T04:25:10;34.57;;;31.97;;
77402;SDS011;66472;53.046;8.656;2023-06-22T04:30:06;31.20;;;28.80;;
77402;SDS011;66472;53.046;8.656;2023-06-22T04:35:02;33.00;;;30.10;;
77402;SDS011;66472;53.046;8.656;2023-06-22T04:39:59;30.40;;;28.00;;
77402;SDS011;66472;53.046;8.656;2023-06-22T04:44:55;29.30;;;26.90;;
77402;SDS011;66472;53.046;8.656;2023-06-22T04:49:50;34.92;;;32.00;;
77402;SDS011;66472;53.046;8.656;2023-06-22T04:54:45;39.57;;;36.33;;
77402;SDS011;66472;53.046;8.656;2023-06-22T04:59:50;39.20;;;35.87;;
77402;SDS011;66472;53.046;8.656;2023-06-22T05:04:45;36.77;;;34.00;;
77402;SDS011;66472;53.046;8.656;2023-06-22T05:09:46;34.10;;;31.13;;
77402;SDS011;66472;53.046;8.656;2023-06-22T05:14:41;33.37;;;30.57;;
77402;SDS011;66472;53.046;8.656;2023-06-22T05:19:36;33.73;;;30.97;;
77402;SDS011;66472;53.046;8.656;2023-06-22T05:24:32;31.65;;;28.77;;
77402;SDS011;66472;53.046;8.656;2023-06-22T05:29:27;30.53;;;27.90;;
77402;SDS011;66472;53.046;8.656;2023-06-22T05:34:22;28.17;;;25.42;;
77402;SDS011;66472;53.046;8.656;2023-06-22T05:39:18;27.03;;;22.17;;
77402;SDS011;66472;53.046;8.656;2023-06-22T05:44:13;23.83;;;21.53;;
77402;SDS011;66472;53.046;8.656;2023-06-22T05:49:08;19.73;;;16.45;;
77402;SDS011;66472;53.046;8.656;2023-06-22T05:54:04;16.97;;;15.37;;
77402;SDS011;66472;53.046;8.656;2023-06-22T05:58:59;19.75;;;17.90;;
77402;SDS011;66472;53.046;8.656;2023-06-22T06:03:54;18.63;;;16.83;;
77402;SDS011;66472;53.046;8.656;2023-06-22T06:08:50;19.80;;;17.88;;
77402;SDS011;66472;53.046;8.656;2023-06-22T06:13:45;18.60;;;16.88;;
77402;SDS011;66472;53.046;8.656;2023-06-22T06:18:40;19.67;;;15.47;;
77402;SDS011;66472;53.046;8.656;2023-06-22T06:23:36;17.07;;;15.47;;
77402;SDS011;66472;53.046;8.656;2023-06-22T06:28:31;17.02;;;15.48;;
77402;SDS011;66472;53.046;8.656;2023-06-22T06:33:26;16.70;;;15.10;;
77402;SDS011;66472;53.046;8.656;2023-06-22T06:38:22;16.85;;;15.10;;
77402;SDS011;66472;53.046;8.656;2023-06-22T06:43:18;16.33;;;14.80;;
77402;SDS011;66472;53.046;8.656;2023-06-22T06:48:13;16.17;;;14.35;;
77402;SDS011;66472;53.046;8.656;2023-06-22T06:53:08;16.83;;;15.23;;
77402;SDS011;66472;53.046;8.656;2023-06-22T06:58:04;18.90;;;17.20;;
77402;SDS011;66472;53.046;8.656;2023-06-22T07:03:02;19.30;;;17.70;;
77402;SDS011;66472;53.046;8.656;2023-06-22T07:07:58;17.33;;;15.88;;
77402;SDS011;66472;53.046;8.656;2023-06-22T07:12:54;14.38;;;13.07;;
77402;SDS011;66472;53.046;8.656;2023-06-22T07:17:49;13.73;;;12.43;;
77402;SDS011;66472;53.046;8.656;2023-06-22T07:22:45;13.68;;;12.38;;
77402;SDS011;66472;53.046;8.656;2023-06-22T07:27:44;12.53;;;11.37;;
77402;SDS011;66472;53.046;8.656;2023-06-22T07:32:40;13.10;;;11.85;;
77402;SDS011;66472;53.046;8.656;2023-06-22T07:37:36;13.00;;;11.75;;
77402;SDS011;66472;53.046;8.656;2023-06-22T07:42:31;13.38;;;12.02;;
77402;SDS011;66472;53.046;8.656;2023-06-22T07:47:28;13.32;;;12.15;;
77402;SDS011;66472;53.046;8.656;2023-06-22T07:52:24;14.40;;;13.20;;
77402;SDS011;66472;53.046;8.656;2023-06-22T07:57:20;15.70;;;14.48;;
77402;SDS011;66472;53.046;8.656;2023-06-22T08:02:16;14.93;;;13.63;;
77402;SDS011;66472;53.046;8.656;2023-06-22T08:07:11;12.32;;;11.18;;
77402;SDS011;66472;53.046;8.656;2023-06-22T08:12:06;12.18;;;11.07;;
77402;SDS011;66472;53.046;8.656;2023-06-22T08:17:02;12.68;;;11.48;;
77402;SDS011;66472;53.046;8.656;2023-06-22T08:21:57;13.45;;;11.73;;
77402;SDS011;66472;53.046;8.656;2023-06-22T08:26:53;13.40;;;12.20;;
77402;SDS011;66472;53.046;8.656;2023-06-22T08:31:48;11.10;;;10.10;;
77402;SDS011;66472;53.046;8.656;2023-06-22T08:36:43;10.40;;;9.50;;
77402;SDS011;66472;53.046;8.656;2023-06-22T08:41:46;11.80;;;10.68;;
77402;SDS011;66472;53.046;8.656;2023-06-22T08:46:42;10.38;;;9.27;;
77402;SDS011;66472;53.046;8.656;2023-06-22T08:51:37;8.97;;;8.27;;
77402;SDS011;66472;53.046;8.656;2023-06-22T08:56:32;9.13;;;8.32;;
77402;SDS011;66472;53.046;8.656;2023-06-22T09:01:28;9.77;;;8.77;;
77402;SDS011;66472;53.046;8.656;2023-06-22T09:06:23;9.63;;;8.73;;
77402;SDS011;66472;53.046;8.656;2023-06-22T09:11:19;8.55;;;7.85;;
77402;SDS011;66472;53.046;8.656;2023-06-22T09:16:15;9.55;;;8.75;;
77402;SDS011;66472;53.046;8.656;2023-06-22T09:21:10;8.70;;;8.10;;
77402;SDS011;66472;53.046;8.656;2023-06-22T09:26:05;10.00;;;9.13;;
77402;SDS011;66472;53.046;8.656;2023-06-22T09:31:01;8.03;;;7.37;;
77402;SDS011;66472;53.046;8.656;2023-06-22T09:35:56;9.82;;;9.13;;
77402;SDS011;66472;53.046;8.656;2023-06-22T09:40:51;9.57;;;8.60;;
77402;SDS011;66472;53.046;8.656;2023-06-22T09:45:46;9.27;;;8.47;;
77402;SDS011;66472;53.046;8.656;2023-06-22T09:50:42;9.88;;;9.10;;
77402;SDS011;66472;53.046;8.656;2023-06-22T09:55:37;9.03;;;8.23;;
77402;SDS011;66472;53.046;8.656;2023-06-22T10:00:32;10.05;;;8.82;;
77402;SDS011;66472;53.046;8.656;2023-06-22T10:05:28;10.00;;;9.02;;
77402;SDS011;66472;53.046;8.656;2023-06-22T10:10:23;10.07;;;9.07;;
77402;SDS011;66472;53.046;8.656;2023-06-22T10:15:18;8.48;;;7.80;;
77402;SDS011;66472;53.046;8.656;2023-06-22T10:20:14;11.25;;;10.32;;
77402;SDS011;66472;53.046;8.656;2023-06-22T10:25:10;10.50;;;9.70;;
77402;SDS011;66472;53.046;8.656;2023-06-22T10:30:07;10.30;;;9.40;;
77402;SDS011;66472;53.046;8.656;2023-06-22T10:35:02;10.30;;;9.50;;
77402;SDS011;66472;53.046;8.656;2023-06-22T10:39:58;12.00;;;10.80;;
77402;SDS011;66472;53.046;8.656;2023-06-22T10:44:54;11.23;;;10.10;;
77402;SDS011;66472;53.046;8.656;2023-06-22T10:49:49;12.60;;;11.43;;
77402;SDS011;66472;53.046;8.656;2023-06-22T10:54:44;13.27;;;12.17;;
77402;SDS011;66472;53.046;8.656;2023-06-22T10:59:39;12.93;;;10.97;;
77402;SDS011;66472;53.046;8.656;2023-06-22T11:04:36;11.25;;;10.45;;
77402;SDS011;66472;53.046;8.656;2023-06-22T11:09:31;10.43;;;9.47;;
77402;SDS011;66472;53.046;8.656;2023-06-22T11:14:26;14.70;;;13.63;;
77402;SDS011;66472;53.046;8.656;2023-06-22T11:19:22;13.60;;;12.45;;
77402;SDS011;66472;53.046;8.656;2023-06-22T11:24:17;12.73;;;11.63;;
77402;SDS011;66472;53.046;8.656;2023-06-22T11:29:13;9.93;;;9.20;;
77402;SDS011;66472;53.046;8.656;2023-06-22T11:34:08;10.48;;;9.60;;
77402;SDS011;66472;53.046;8.656;2023-06-22T11:39:03;13.15;;;11.88;;
77402;SDS011;66472;53.046;8.656;2023-06-22T11:44:00;11.15;;;10.25;;
77402;SDS011;66472;53.046;8.656;2023-06-22T11:48:55;10.25;;;9.45;;
77402;SDS011;66472;53.046;8.656;2023-06-22T11:53:51;11.85;;;10.90;;
77402;SDS011;66472;53.046;8.656;2023-06-22T11:58:46;9.35;;;8.55;;
77402;SDS011;66472;53.046;8.656;2023-06-22T12:03:41;12.43;;;11.30;;
77402;SDS011;66472;53.046;8.656;2023-06-22T12:08:38;11.65;;;10.68;;
77402;SDS011;66472;53.046;8.656;2023-06-22T12:13:34;12.17;;;11.17;;
77402;SDS011;66472;53.046;8.656;2023-06-22T12:18:29;8.60;;;7.85;;
77402;SDS011;66472;53.046;8.656;2023-06-22T12:23:24;10.43;;;9.63;;
77402;SDS011;66472;53.046;8.656;2023-06-22T12:28:19;8.73;;;8.15;;
77402;SDS011;66472;53.046;8.656;2023-06-22T12:33:15;9.95;;;9.23;;
77402;SDS011;66472;53.046;8.656;2023-06-22T12:38:10;11.18;;;9.40;;
77402;SDS011;66472;53.046;8.656;2023-06-22T12:43:06;9.23;;;8.52;;
77402;SDS011;66472;53.046;8.656;2023-06-22T12:48:02;9.50;;;8.43;;
77402;SDS011;66472;53.046;8.656;2023-06-22T12:52:58;8.50;;;7.90;;
77402;SDS011;66472;53.046;8.656;2023-06-22T12:57:53;8.00;;;7.18;;
77402;SDS011;66472;53.046;8.656;2023-06-22T13:02:48;8.73;;;8.13;;
77402;SDS011;66472;53.046;8.656;2023-06-22T13:07:44;9.52;;;8.73;;
77402;SDS011;66472;53.046;8.656;2023-06-22T13:12:40;9.43;;;8.20;;
77402;SDS011;66472;53.046;8.656;2023-06-22T13:17:36;8.38;;;7.70;;
77402;SDS011;66472;53.046;8.656;2023-06-22T13:22:32;8.82;;;8.02;;
77402;SDS011;66472;53.046;8.656;2023-06-22T13:27:27;9.38;;;8.55;;
77402;SDS011;66472;53.046;8.656;2023-06-22T13:32:23;30.75;;;9.77;;
77402;SDS011;66472;53.046;8.656;2023-06-22T13:37:18;9.88;;;8.35;;
77402;SDS011;66472;53.046;8.656;2023-06-22T13:42:14;9.10;;;8.43;;
77402;SDS011;66472;53.046;8.656;2023-06-22T13:47:09;9.43;;;8.70;;
77402;SDS011;66472;53.046;8.656;2023-06-22T13:52:05;9.75;;;9.00;;
77402;SDS011;66472;53.046;8.656;2023-06-22T13:57:05;10.90;;;10.18;;
77402;SDS011;66472;53.046;8.656;2023-06-22T14:02:00;10.60;;;9.80;;
77402;SDS011;66472;53.046;8.656;2023-06-22T14:06:56;11.48;;;10.68;;
77402;SDS011;66472;53.046;8.656;2023-06-22T14:11:51;12.03;;;11.23;;
77402;SDS011;66472;53.046;8.656;2023-06-22T14:16:46;10.15;;;9.25;;
77402;SDS011;66472;53.046;8.656;2023-06-22T14:21:42;9.85;;;9.15;;
77402;SDS011;66472;53.046;8.656;2023-06-22T14:26:38;11.43;;;10.33;;
77402;SDS011;66472;53.046;8.656;2023-06-22T14:31:33;10.48;;;9.50;;
77402;SDS011;66472;53.046;8.656;2023-06-22T14:36:29;11.23;;;9.93;;
77402;SDS011;66472;53.046;8.656;2023-06-22T14:41:24;9.82;;;8.82;;
77402;SDS011;66472;53.046;8.656;2023-06-22T14:46:19;9.98;;;9.15;;
77402;SDS011;66472;53.046;8.656;2023-06-22T14:51:15;11.85;;;10.00;;
77402;SDS011;66472;53.046;8.656;2023-06-22T14:56:11;12.45;;;11.25;;
77402;SDS011;66472;53.046;8.656;2023-06-22T15:01:07;15.93;;;14.38;;
77402;SDS011;66472;53.046;8.656;2023-06-22T15:11:15;26.02;;;24.27;;
77402;SDS011;66472;53.046;8.656;2023-06-22T15:16:11;24.42;;;22.58;;
77402;SDS011;66472;53.046;8.656;2023-06-22T15:21:06;30.40;;;28.37;;
77402;SDS011;66472;53.046;8.656;2023-06-22T15:26:02;34.15;;;31.85;;
77402;SDS011;66472;53.046;8.656;2023-06-22T15:31:00;30.45;;;28.45;;
77402;SDS011;66472;53.046;8.656;2023-06-22T15:35:55;27.30;;;25.42;;
77402;SDS011;66472;53.046;8.656;2023-06-22T15:40:51;16.05;;;14.82;;
77402;SDS011;66472;53.046;8.656;2023-06-22T15:45:46;22.02;;;20.48;;
77402;SDS011;66472;53.046;8.656;2023-06-22T15:50:43;16.92;;;15.68;;
77402;SDS011;66472;53.046;8.656;2023-06-22T15:55:38;18.17;;;16.80;;
77402;SDS011;66472;53.046;8.656;2023-06-22T16:00:33;19.33;;;17.67;;
77402;SDS011;66472;53.046;8.656;2023-06-22T16:05:29;27.90;;;25.90;;
77402;SDS011;66472;53.046;8.656;2023-06-22T16:10:24;28.40;;;26.38;;
77402;SDS011;66472;53.046;8.656;2023-06-22T16:15:20;33.05;;;30.92;;
77402;SDS011;66472;53.046;8.656;2023-06-22T16:20:15;64.13;;;60.60;;
77402;SDS011;66472;53.046;8.656;2023-06-22T16:25:12;92.78;;;87.47;;
77402;SDS011;66472;53.046;8.656;2023-06-22T16:30:08;113.20;;;106.68;;
77402;SDS011;66472;53.046;8.656;2023-06-22T16:35:04;117.72;;;110.78;;
77402;SDS011;66472;53.046;8.656;2023-06-22T16:39:59;75.87;;;71.40;;
77402;SDS011;66472;53.046;8.656;2023-06-22T16:44:55;88.10;;;82.97;;
77402;SDS011;66472;53.046;8.656;2023-06-22T16:49:50;61.10;;;57.55;;
77402;SDS011;66472;53.046;8.656;2023-06-22T16:54:46;45.42;;;42.65;;
77402;SDS011;66472;53.046;8.656;2023-06-22T16:59:42;43.58;;;40.95;;
77402;SDS011;66472;53.046;8.656;2023-06-22T17:04:37;34.85;;;32.53;;
77402;SDS011;66472;53.046;8.656;2023-06-22T17:09:33;31.25;;;29.25;;
77402;SDS011;66472;53.046;8.656;2023-06-22T17:14:29;31.13;;;29.13;;
77402;SDS011;66472;53.046;8.656;2023-06-22T17:19:24;36.92;;;34.63;;
77402;SDS011;66472;53.046;8.656;2023-06-22T17:24:20;36.63;;;34.23;;
77402;SDS011;66472;53.046;8.656;2023-06-22T17:29:15;36.40;;;33.85;;
77402;SDS011;66472;53.046;8.656;2023-06-22T17:34:11;36.72;;;34.22;;
77402;SDS011;66472;53.046;8.656;2023-06-22T17:39:11;37.70;;;35.30;;
77402;SDS011;66472;53.046;8.656;2023-06-22T17:44:07;40.38;;;37.88;;
77402;SDS011;66472;53.046;8.656;2023-06-22T17:49:06;39.88;;;36.95;;
77402;SDS011;66472;53.046;8.656;2023-06-22T17:54:02;38.13;;;35.75;;
77402;SDS011;66472;53.046;8.656;2023-06-22T17:58:58;39.35;;;36.75;;
77402;SDS011;66472;53.046;8.656;2023-06-22T18:03:53;38.42;;;35.85;;
77402;SDS011;66472;53.046;8.656;2023-06-22T18:08:49;38.22;;;35.38;;
77402;SDS011;66472;53.046;8.656;2023-06-22T18:13:45;41.25;;;38.65;;
77402;SDS011;66472;53.046;8.656;2023-06-22T18:18:41;35.03;;;32.78;;
77402;SDS011;66472;53.046;8.656;2023-06-22T18:23:37;31.73;;;29.42;;
77402;SDS011;66472;53.046;8.656;2023-06-22T18:28:32;37.97;;;35.35;;
77402;SDS011;66472;53.046;8.656;2023-06-22T18:33:28;41.03;;;38.13;;
77402;SDS011;66472;53.046;8.656;2023-06-22T18:38:24;52.60;;;49.33;;
77402;SDS011;66472;53.046;8.656;2023-06-22T18:43:22;113.38;;;106.38;;
77402;SDS011;66472;53.046;8.656;2023-06-22T18:48:24;256.77;;;239.77;;
77402;SDS011;66472;53.046;8.656;2023-06-22T18:53:24;252.17;;;235.93;;
77402;SDS011;66472;53.046;8.656;2023-06-22T18:58:24;281.50;;;264.37;;
77402;SDS011;66472;53.046;8.656;2023-06-22T19:03:22;262.60;;;246.57;;
77402;SDS011;66472;53.046;8.656;2023-06-22T19:08:17;222.10;;;208.60;;
77402;SDS011;66472;53.046;8.656;2023-06-22T19:18:18;265.97;;;250.30;;
77402;SDS011;66472;53.046;8.656;2023-06-22T19:23:36;274.10;;;257.83;;
77402;SDS011;66472;53.046;8.656;2023-06-22T19:28:31;276.37;;;259.90;;
77402;SDS011;66472;53.046;8.656;2023-06-22T19:33:27;277.73;;;261.23;;
77402;SDS011;66472;53.046;8.656;2023-06-22T19:38:26;269.00;;;252.67;;
77402;SDS011;66472;53.046;8.656;2023-06-22T19:43:21;280.20;;;263.27;;
77402;SDS011;66472;53.046;8.656;2023-06-22T19:48:17;291.37;;;273.60;;
77402;SDS011;66472;53.046;8.656;2023-06-22T19:53:13;268.97;;;252.30;;
77402;SDS011;66472;53.046;8.656;2023-06-22T19:58:12;301.70;;;282.43;;
77402;SDS011;66472;53.046;8.656;2023-06-22T20:03:14;336.50;;;314.40;;
77402;SDS011;66472;53.046;8.656;2023-06-22T20:08:11;332.03;;;310.23;;
77402;SDS011;66472;53.046;8.656;2023-06-22T20:13:14;337.20;;;315.90;;
77402;SDS011;66472;53.046;8.656;2023-06-22T20:18:10;356.83;;;334.00;;
77402;SDS011;66472;53.046;8.656;2023-06-22T20:23:05;350.20;;;327.00;;
77402;SDS011;66472;53.046;8.656;2023-06-22T20:28:08;327.67;;;306.43;;
77402;SDS011;66472;53.046;8.656;2023-06-22T20:33:03;325.27;;;305.53;;
77402;SDS011;66472;53.046;8.656;2023-06-22T20:38:00;316.07;;;296.33;;
77402;SDS011;66472;53.046;8.656;2023-06-22T20:42:56;315.20;;;295.30;;
77402;SDS011;66472;53.046;8.656;2023-06-22T20:47:56;318.80;;;299.20;;
77402;SDS011;66472;53.046;8.656;2023-06-22T20:52:51;308.00;;;289.40;;
77402;SDS011;66472;53.046;8.656;2023-06-22T20:57:47;316.48;;;297.33;;
77402;SDS011;66472;53.046;8.656;2023-06-22T21:02:42;336.53;;;316.37;;
77402;SDS011;66472;53.046;8.656;2023-06-22T21:07:39;327.77;;;307.40;;
77402;SDS011;66472;53.046;8.656;2023-06-22T21:12:34;325.30;;;304.70;;
77402;SDS011;66472;53.046;8.656;2023-06-22T21:17:33;328.27;;;308.53;;
77402;SDS011;66472;53.046;8.656;2023-06-22T21:22:29;307.00;;;289.20;;
77402;SDS011;66472;53.046;8.656;2023-06-22T21:27:25;302.17;;;284.13;;
77402;SDS011;66472;53.046;8.656;2023-06-22T21:32:20;296.70;;;279.30;;
77402;SDS011;66472;53.046;8.656;2023-06-22T21:37:15;300.10;;;283.02;;
77402;SDS011;66472;53.046;8.656;2023-06-22T21:42:12;306.17;;;288.67;;
77402;SDS011;66472;53.046;8.656;2023-06-22T21:47:08;302.17;;;284.60;;
77402;SDS011;66472;53.046;8.656;2023-06-22T21:52:05;297.73;;;280.37;;
77402;SDS011;66472;53.046;8.656;2023-06-22T21:57:00;282.77;;;266.83;;
77402;SDS011;66472;53.046;8.656;2023-06-22T22:01:56;280.50;;;264.50;;
77402;SDS011;66472;53.046;8.656;2023-06-22T22:06:51;300.03;;;282.97;;
77402;SDS011;66472;53.046;8.656;2023-06-22T22:11:47;308.47;;;290.00;;
77402;SDS011;66472;53.046;8.656;2023-06-22T22:16:43;312.43;;;294.07;;
77402;SDS011;66472;53.046;8.656;2023-06-22T22:21:38;318.25;;;299.77;;
77402;SDS011;66472;53.046;8.656;2023-06-22T22:26:34;327.60;;;308.63;;
77402;SDS011;66472;53.046;8.656;2023-06-22T22:31:30;331.90;;;313.00;;
77402;SDS011;66472;53.046;8.656;2023-06-22T22:36:32;368.87;;;347.27;;
77402;SDS011;66472;53.046;8.656;2023-06-22T22:41:28;346.80;;;327.03;;
77402;SDS011;66472;53.046;8.656;2023-06-22T22:46:23;340.33;;;320.70;;
77402;SDS011;66472;53.046;8.656;2023-06-22T22:51:19;343.03;;;323.23;;
77402;SDS011;66472;53.046;8.656;2023-06-22T22:56:14;394.17;;;370.97;;
77402;SDS011;66472;53.046;8.656;2023-06-22T23:01:09;386.90;;;364.13;;
77402;SDS011;66472;53.046;8.656;2023-06-22T23:06:05;382.40;;;359.75;;
77402;SDS011;66472;53.046;8.656;2023-06-22T23:11:00;373.40;;;351.13;;
77402;SDS011;66472;53.046;8.656;2023-06-22T23:15:56;404.63;;;380.25;;
77402;SDS011;66472;53.046;8.656;2023-06-22T23:20:52;422.00;;;396.63;;
77402;SDS011;66472;53.046;8.656;2023-06-22T23:25:47;396.77;;;372.97;;
77402;SDS011;66472;53.046;8.656;2023-06-22T23:30:42;388.63;;;364.77;;
77402;SDS011;66472;53.046;8.656;2023-06-22T23:35:38;927.13;;;578.13;;
77402;SDS011;66472;53.046;8.656;2023-06-22T23:40:35;396.80;;;373.00;;
77402;SDS011;66472;53.046;8.656;2023-06-22T23:45:31;378.67;;;356.00;;
77402;SDS011;66472;53.046;8.656;2023-06-22T23:50:27;398.57;;;374.27;;
77402;SDS011;66472;53.046;8.656;2023-06-22T23:55:22;945.80;;;595.73;;
